Ana Sayfa
METAR-TAF:

METAR-TAF

Havaalanları :

Mataram, Endonezya

Enlem: 08-45-29S, Boylam: 116-16-35E, yükseklik: 97 m

Güncel hava durumu gözlemi

Rapor saat 00:00 UTC de 15 dakika önce yapıldı.
Sakin rüzgar
Sıcaklık 27°C
Nem 89%
Basınç 1010 hPa
Görüş mesafesi: 7000 m
1600 ft yükseklikte parçalı bulutlu

METAR: WADL 260000Z 00000KT 7000 SCT016 27/25 Q1010 NOSIG

Saat: 07:15 (00:15 UTC)

Tahmin

Rapor saat 23:00 UTC de 1 saat ve 15 dakika önce yapıldı.
Ayın 26'si saat 00 UTC'den ayın 26'si saat 24 UTC'ye kadar geçerli Tahmin
Rüzgar kuzeybatıdan 12 kt
Görüş mesafesi: 8000 m
1600 ft yükseklikte parçalı çok bulutlu
Olasılık 40% :
Geçici
ayın 26'si saat 06 UTC'den ayın 26'si saat 08 UTC'ye kadar
Görüş mesafesi: 5000 m
1500 ft yükseklikte az bulutlu, Kümülonimbus.
gök gürültülü fırtına, hafif yağmur

TAF: WADL 252300Z 2600/2624 31012KT 8000 BKN016 PROB40 TEMPO 2606/2608 5000 -TSRA FEW015CB

4.000'den fazla havaalanı için hava durumu gözlemleri ve tahminleri (METAR ve TAF raporları).

Kullanılabilir istasyonlar harita üzerinde sarı ve kırmızı noktalarla gösterilir.

İstasyonun adını görmek için fareyi noktanın üzerinde gezdirin.

Sonrasında hava gözlem ve tahminlerini görmek için tıklayın.

Haritayı değiştirmek için: yaklaştırmak için siyah artı işaretli yeşil düğmeye ve uzaklaştırmak için de eksi işaretli düğmeye hızla tıklayın; bitişik haritalar için yeşil okları kullanın.


METAR-TAF: